Time;durP1;ratioP1;P1;durP2;ratioP2;P2;SDS_P1;SDS_P2;PMS_P1;PMS_P2;Temp;Humidity;BMP_temperature;BMP_pressure;BME280_temperature;BME280_humidity;BME280_pressure;Samples;Min_cycle;Max_cycle;Signal;HPM_P1;HPM_P2
2023/04/30 00:01:44;;;;;;;2.30;1.50;;;18.20;56.30;;;;;;4953234;28;20199;-59
2023/04/30 00:04:14;;;;;;;1.95;1.20;;;18.30;56.40;;;;;;4973244;28;20222;-60
2023/04/30 00:06:45;;;;;;;0.93;0.90;;;18.30;56.30;;;;;;4972185;28;20597;-58
2023/04/30 00:09:15;;;;;;;2.47;1.50;;;18.30;56.30;;;;;;4972270;28;20214;-59
2023/04/30 00:11:48;;;;;;;1.55;1.30;;;18.30;56.30;;;;;;4972399;28;20202;-59
2023/04/30 00:14:19;;;;;;;1.98;1.15;;;18.40;56.30;;;;;;4965653;28;20205;-59
2023/04/30 00:16:49;;;;;;;2.25;1.00;;;18.40;56.30;;;;;;4953146;28;20214;-58
2023/04/30 00:19:20;;;;;;;2.05;1.10;;;18.40;56.40;;;;;;4953035;28;20223;-58
2023/04/30 00:21:51;;;;;;;2.45;1.52;;;18.50;56.40;;;;;;4988167;28;20209;-59
2023/04/30 00:24:21;;;;;;;3.10;1.05;;;18.50;56.50;;;;;;4979343;28;20230;-59
2023/04/30 00:26:54;;;;;;;2.03;1.17;;;18.50;56.50;;;;;;4975790;28;20592;-59
2023/04/30 00:29:24;;;;;;;2.30;1.50;;;18.50;56.50;;;;;;4975494;28;21475;-59
2023/04/30 00:31:55;;;;;;;2.05;1.50;;;18.60;56.60;;;;;;4975442;28;20198;-59
2023/04/30 00:34:26;;;;;;;2.28;1.70;;;18.60;56.60;;;;;;4975528;28;20693;-60
2023/04/30 00:36:56;;;;;;;3.75;1.25;;;18.60;56.70;;;;;;4975804;28;20530;-60
2023/04/30 00:39:27;;;;;;;2.35;1.73;;;18.60;56.70;;;;;;4975785;28;20222;-60
2023/04/30 00:41:59;;;;;;;1.35;1.25;;;18.70;56.90;;;;;;4975549;28;20209;-60
2023/04/30 00:44:30;;;;;;;2.72;1.50;;;18.70;56.80;;;;;;4975149;28;20237;-61
2023/04/30 00:47:00;;;;;;;3.08;1.48;;;18.70;56.70;;;;;;4975261;28;20224;-61
2023/04/30 00:49:31;;;;;;;2.22;1.48;;;18.80;56.70;;;;;;4975162;28;20620;-60
2023/04/30 00:52:04;;;;;;;2.63;1.40;;;18.70;56.70;;;;;;4962214;28;20205;-60
2023/04/30 00:54:35;;;;;;;2.72;1.67;;;18.80;56.70;;;;;;4970722;28;20202;-60
2023/04/30 00:57:09;;;;;;;2.20;1.42;;;18.80;56.70;;;;;;4975344;28;20685;-61
2023/04/30 00:59:40;;;;;;;3.42;1.70;;;18.80;56.80;;;;;;4975187;28;20225;-60
2023/04/30 01:02:11;;;;;;;4.32;1.77;;;18.90;57.00;;;;;;4975346;28;20261;-60
2023/04/30 01:04:42;;;;;;;2.83;1.48;;;18.90;57.10;;;;;;4974870;28;20226;-60
2023/04/30 01:07:12;;;;;;;2.28;1.52;;;18.90;57.10;;;;;;4974836;28;20198;-60
2023/04/30 01:09:43;;;;;;;2.22;1.90;;;19.00;57.00;;;;;;4975127;28;20229;-60
2023/04/30 01:12:19;;;;;;;3.88;2.55;;;19.00;57.00;;;;;;4975229;28;20205;-59
2023/04/30 01:15:03;;;;;;;2.22;2.03;;;19.00;57.00;;;;;;4975220;28;20674;-60
2023/04/30 01:17:37;;;;;;;3.55;2.22;;;19.00;57.00;;;;;;4974855;28;20978;-60
2023/04/30 01:20:11;;;;;;;2.33;2.10;;;19.10;57.00;;;;;;4977221;28;20934;-60
2023/04/30 01:22:50;;;;;;;2.28;1.90;;;19.10;57.00;;;;;;4974765;28;20209;-60
2023/04/30 01:25:46;;;;;;;2.72;2.20;;;19.10;57.00;;;;;;4955556;28;20210;-60
2023/04/30 01:28:20;;;;;;;3.15;2.30;;;19.10;57.00;;;;;;4955213;28;21609;-59
2023/04/30 01:30:50;;;;;;;3.78;2.20;;;19.10;56.90;;;;;;4955427;28;20289;-59
2023/04/30 01:33:21;;;;;;;2.28;1.65;;;19.10;56.90;;;;;;4963480;28;20198;-60
2023/04/30 01:36:16;;;;;;;3.38;2.30;;;19.20;56.90;;;;;;4992917;28;20202;-60
2023/04/30 01:38:58;;;;;;;1.77;1.67;;;19.20;56.90;;;;;;4987047;28;20220;-60
2023/04/30 01:41:35;;;;;;;3.10;2.00;;;19.30;57.00;;;;;;4994242;28;20201;-60
2023/04/30 01:44:34;;;;;;;2.95;2.20;;;19.30;57.00;;;;;;4993819;28;20312;-60
2023/04/30 01:47:09;;;;;;;3.08;2.08;;;19.30;57.00;;;;;;4993534;28;20260;-60
2023/04/30 01:49:53;;;;;;;2.63;1.85;;;19.30;56.90;;;;;;4993313;28;20225;-60
2023/04/30 01:52:33;;;;;;;2.22;1.85;;;19.30;56.90;;;;;;4993444;28;20240;-60
2023/04/30 01:55:07;;;;;;;2.20;1.67;;;19.40;57.00;;;;;;4974365;28;20596;-60
2023/04/30 01:57:41;;;;;;;3.20;1.88;;;19.40;56.90;;;;;;4988140;23;20229;-52
2023/04/30 02:00:16;;;;;;;2.55;2.00;;;19.40;56.90;;;;;;4992001;28;20228;-53
2023/04/30 02:02:47;;;;;;;3.20;2.22;;;19.40;56.90;;;;;;4993143;28;20788;-53
2023/04/30 02:05:18;;;;;;;2.35;1.83;;;19.40;56.90;;;;;;4993323;28;20198;-54
2023/04/30 02:07:50;;;;;;;2.28;1.90;;;19.50;56.90;;;;;;4991667;28;20201;-52
2023/04/30 02:10:22;;;;;;;3.67;1.98;;;19.50;56.90;;;;;;4993047;28;20577;-51
2023/04/30 02:12:52;;;;;;;2.97;2.10;;;19.50;57.50;;;;;;4995533;28;20244;-50
2023/04/30 02:15:26;;;;;;;2.60;2.05;;;19.50;56.90;;;;;;4992641;28;20201;-50
2023/04/30 02:17:56;;;;;;;1.92;1.73;;;19.60;56.90;;;;;;4992236;28;20228;-48
2023/04/30 02:20:27;;;;;;;2.78;1.80;;;19.60;56.90;;;;;;4992326;28;20228;-48
2023/04/30 02:22:58;;;;;;;3.65;2.05;;;19.60;56.90;;;;;;4993138;28;20253;-49
2023/04/30 02:25:29;;;;;;;3.33;2.47;;;19.60;56.90;;;;;;4993187;28;20201;-50
2023/04/30 02:27:59;;;;;;;2.97;1.73;;;19.70;56.90;;;;;;4992744;28;20198;-50
2023/04/30 02:30:32;;;;;;;3.65;2.50;;;19.70;56.90;;;;;;5000750;28;20193;-50
2023/04/30 02:33:04;;;;;;;2.50;2.30;;;19.70;57.00;;;;;;5011800;28;20196;-53
2023/04/30 02:35:34;;;;;;;3.80;2.33;;;19.70;56.90;;;;;;5012131;28;20200;-54
2023/04/30 02:38:05;;;;;;;3.70;2.30;;;19.80;57.00;;;;;;5012447;28;20292;-51
2023/04/30 02:40:35;;;;;;;2.92;1.90;;;19.80;57.00;;;;;;5012057;28;20208;-54
2023/04/30 02:43:06;;;;;;;3.65;2.25;;;19.80;57.00;;;;;;4975698;28;20197;-54
2023/04/30 02:45:38;;;;;;;2.92;2.10;;;19.80;57.00;;;;;;4972880;28;20201;-54
2023/04/30 02:48:09;;;;;;;4.18;2.30;;;19.80;57.10;;;;;;4972495;28;20202;-52
2023/04/30 02:50:40;;;;;;;3.70;2.42;;;19.90;57.10;;;;;;4972831;28;20223;-56
2023/04/30 02:53:10;;;;;;;2.42;2.17;;;19.90;57.10;;;;;;4976845;28;20201;-53
2023/04/30 02:55:41;;;;;;;3.30;2.30;;;19.90;57.10;;;;;;4992542;28;20684;-49
2023/04/30 02:58:12;;;;;;;4.03;2.33;;;20.00;57.10;;;;;;4992292;28;20209;-51
2023/04/30 03:00:44;;;;;;;3.72;2.40;;;20.00;57.10;;;;;;4991423;28;20204;-52
2023/04/30 03:03:15;;;;;;;4.15;2.10;;;20.00;57.10;;;;;;4990734;28;20197;-48
2023/04/30 03:05:46;;;;;;;2.65;2.30;;;20.10;57.10;;;;;;4991658;28;20197;-53
2023/04/30 03:08:16;;;;;;;3.60;2.08;;;20.10;57.00;;;;;;4991513;28;20692;-48
2023/04/30 03:10:47;;;;;;;2.58;2.35;;;20.10;57.00;;;;;;4991384;28;20289;-50
2023/04/30 03:13:17;;;;;;;2.63;2.25;;;20.10;57.00;;;;;;4991120;28;20200;-52
2023/04/30 03:15:50;;;;;;;2.78;2.22;;;20.10;57.00;;;;;;4991321;28;20208;-49
2023/04/30 03:18:20;;;;;;;2.63;2.20;;;20.20;56.90;;;;;;4991552;28;20217;-52
2023/04/30 03:20:51;;;;;;;3.35;2.30;;;20.20;56.90;;;;;;4992781;28;20197;-50
2023/04/30 03:23:22;;;;;;;3.20;2.33;;;20.20;56.90;;;;;;4991498;28;20202;-52
2023/04/30 03:25:53;;;;;;;2.60;2.20;;;20.20;56.90;;;;;;4991778;28;20623;-52
2023/04/30 03:28:23;;;;;;;3.25;2.47;;;20.20;56.90;;;;;;4991470;28;20276;-50
2023/04/30 03:30:56;;;;;;;6.30;3.35;;;20.20;57.00;;;;;;4991410;28;20197;-49
2023/04/30 03:33:26;;;;;;;4.15;2.83;;;20.30;57.30;;;;;;4991487;28;20197;-49
2023/04/30 03:35:57;;;;;;;5.95;3.10;;;20.30;57.20;;;;;;4979096;28;20209;-50
2023/04/30 03:38:28;;;;;;;4.60;3.17;;;20.30;57.20;;;;;;4985779;28;20717;-51
2023/04/30 03:40:58;;;;;;;3.78;3.22;;;20.40;57.30;;;;;;4970345;28;20190;-50
2023/04/30 03:43:29;;;;;;;4.93;3.20;;;20.40;57.30;;;;;;4988299;28;20195;-51
2023/04/30 03:46:02;;;;;;;3.83;3.15;;;20.40;57.30;;;;;;4971337;28;20233;-52
2023/04/30 03:48:32;;;;;;;4.90;3.28;;;20.40;57.30;;;;;;4970863;28;20210;-51
2023/04/30 03:51:03;;;;;;;4.22;3.42;;;20.40;57.30;;;;;;4971206;28;20232;-52
2023/04/30 03:53:33;;;;;;;7.32;3.40;;;20.40;57.20;;;;;;4974007;28;20191;-48
2023/04/30 03:56:04;;;;;;;4.93;3.05;;;20.40;57.10;;;;;;4988463;28;20221;-48
2023/04/30 03:58:35;;;;;;;8.00;3.60;;;20.50;57.20;;;;;;4870823;28;3374759;-48
2023/04/30 04:01:08;;;;;;;3.88;3.47;;;20.50;57.20;;;;;;4975653;28;20206;-47
2023/04/30 04:03:38;;;;;;;4.80;3.45;;;20.50;57.20;;;;;;4974701;28;20217;-52
2023/04/30 04:06:09;;;;;;;3.80;3.40;;;20.50;57.20;;;;;;4975591;28;20627;-50
2023/04/30 04:08:42;;;;;;;3.95;3.40;;;20.50;57.20;;;;;;4975542;28;20610;-47
2023/04/30 04:11:12;;;;;;;3.95;3.40;;;20.60;57.20;;;;;;4977920;28;20190;-49
2023/04/30 04:13:43;;;;;;;5.22;3.30;;;20.60;57.20;;;;;;5003260;28;20335;-49
2023/04/30 04:16:15;;;;;;;3.30;2.97;;;20.60;57.20;;;;;;4974997;28;20202;-48
2023/04/30 04:18:46;;;;;;;4.03;3.47;;;20.60;57.10;;;;;;4975480;28;20210;-50
2023/04/30 04:21:17;;;;;;;3.92;3.55;;;20.60;57.10;;;;;;4974975;28;20608;-48
2023/04/30 04:23:47;;;;;;;5.30;3.47;;;20.60;57.10;;;;;;4980590;28;20226;-51
2023/04/30 04:26:18;;;;;;;6.15;3.75;;;20.70;57.10;;;;;;4985785;28;20193;-50
2023/04/30 04:28:49;;;;;;;4.88;3.90;;;20.70;57.10;;;;;;5007087;28;20210;-52
2023/04/30 04:31:21;;;;;;;4.45;3.35;;;20.70;57.00;;;;;;4982976;28;20251;-47
2023/04/30 04:33:57;;;;;;;5.53;3.58;;;20.70;57.00;;;;;;4991188;28;20318;-50
2023/04/30 04:36:29;;;;;;;4.47;3.83;;;20.70;57.00;;;;;;4974934;28;20713;-48
2023/04/30 04:39:00;;;;;;;4.78;3.28;;;20.70;56.90;;;;;;4975037;28;20758;-48
2023/04/30 04:41:31;;;;;;;4.55;3.65;;;20.70;56.90;;;;;;4974491;28;20214;-50
2023/04/30 04:44:02;;;;;;;4.00;3.38;;;20.70;56.90;;;;;;4974353;28;20229;-47
2023/04/30 04:46:37;;;;;;;5.68;3.25;;;20.70;56.80;;;;;;4975454;28;20229;-49
2023/04/30 04:49:07;;;;;;;4.05;3.55;;;20.70;56.80;;;;;;4974335;28;20210;-47
2023/04/30 04:51:38;;;;;;;4.43;3.00;;;20.70;56.80;;;;;;4979570;28;20193;-47
2023/04/30 04:54:09;;;;;;;4.20;3.40;;;20.70;56.70;;;;;;4989852;28;20201;-47
2023/04/30 04:56:40;;;;;;;5.25;3.28;;;20.70;56.70;;;;;;4974760;28;20205;-47
2023/04/30 04:59:10;;;;;;;3.85;3.22;;;20.70;56.70;;;;;;4974657;28;20226;-49
2023/04/30 05:01:43;;;;;;;3.85;3.33;;;20.70;56.70;;;;;;4974271;28;20198;-50
2023/04/30 05:04:14;;;;;;;3.30;3.00;;;20.70;56.70;;;;;;4974480;28;20838;-50
2023/04/30 05:06:45;;;;;;;4.78;3.47;;;20.70;56.70;;;;;;4974830;28;20197;-49
2023/04/30 05:09:16;;;;;;;4.35;3.30;;;20.70;56.60;;;;;;4974619;28;20636;-48
2023/04/30 05:11:47;;;;;;;4.32;3.58;;;20.70;56.60;;;;;;4973329;28;20265;-49
2023/04/30 05:14:19;;;;;;;3.67;3.10;;;20.70;56.60;;;;;;4973491;28;20194;-47
2023/04/30 05:16:52;;;;;;;4.70;3.60;;;20.70;56.50;;;;;;4984795;28;20855;-49
2023/04/30 05:19:22;;;;;;;3.38;3.08;;;20.70;56.40;;;;;;4988907;28;20210;-48
2023/04/30 05:21:53;;;;;;;3.55;3.20;;;20.70;56.40;;;;;;4974449;28;20262;-48
2023/04/30 05:24:24;;;;;;;5.25;3.33;;;20.70;56.30;;;;;;4983258;28;20229;-51
2023/04/30 05:26:54;;;;;;;3.63;3.25;;;20.70;56.30;;;;;;4973820;28;20209;-50
2023/04/30 05:29:25;;;;;;;3.33;2.92;;;20.70;56.40;;;;;;4973613;28;20214;-49
2023/04/30 05:31:58;;;;;;;3.40;3.03;;;20.70;56.40;;;;;;4986081;28;20194;-50
2023/04/30 05:34:28;;;;;;;5.65;3.60;;;20.70;56.50;;;;;;4980761;28;20202;-47
2023/04/30 05:37:00;;;;;;;4.43;3.60;;;20.70;56.50;;;;;;4973801;28;20202;-49
2023/04/30 05:39:31;;;;;;;3.58;3.28;;;20.70;56.60;;;;;;4974003;28;20705;-51
2023/04/30 05:42:01;;;;;;;5.75;3.47;;;20.70;56.60;;;;;;4974517;28;20191;-51
2023/04/30 05:44:32;;;;;;;4.05;3.20;;;20.70;56.60;;;;;;4973436;28;20214;-51
2023/04/30 05:47:04;;;;;;;4.32;3.13;;;20.70;56.60;;;;;;4973629;28;20558;-50
2023/04/30 05:49:35;;;;;;;4.53;3.28;;;20.70;56.60;;;;;;4973546;28;20704;-49
2023/04/30 05:52:06;;;;;;;4.07;3.38;;;20.70;56.50;;;;;;4972961;28;20202;-47
2023/04/30 05:54:36;;;;;;;5.00;3.42;;;20.70;56.50;;;;;;4983652;28;20202;-50
2023/04/30 05:57:07;;;;;;;3.92;3.25;;;20.60;56.40;;;;;;4972789;28;20693;-48
2023/04/30 05:59:38;;;;;;;3.95;3.17;;;20.60;56.40;;;;;;4973287;28;20225;-49
2023/04/30 06:02:10;;;;;;;3.33;3.03;;;20.60;56.40;;;;;;4972104;28;20199;-48
2023/04/30 06:04:41;;;;;;;4.38;2.90;;;20.60;56.40;;;;;;4973651;28;20217;-48
2023/04/30 06:07:12;;;;;;;4.38;3.17;;;20.60;56.50;;;;;;4975883;28;20205;-48
2023/04/30 06:09:42;;;;;;;4.07;3.30;;;20.60;56.40;;;;;;4988735;28;20210;-49
2023/04/30 06:12:13;;;;;;;4.45;3.38;;;20.60;56.40;;;;;;4972572;28;20198;-49
2023/04/30 06:14:44;;;;;;;3.70;3.33;;;20.60;56.40;;;;;;4973272;28;20198;-48
2023/04/30 06:17:17;;;;;;;4.00;3.17;;;20.60;56.50;;;;;;4980999;28;20555;-52
2023/04/30 06:19:47;;;;;;;5.20;3.05;;;20.60;56.40;;;;;;4971998;28;20217;-51
2023/04/30 06:22:18;;;;;;;3.38;3.08;;;20.60;56.40;;;;;;4972860;28;20662;-47
2023/04/30 06:24:49;;;;;;;4.57;3.05;;;20.60;56.40;;;;;;4984478;28;20218;-48
2023/04/30 06:27:19;;;;;;;4.00;3.60;;;20.60;56.40;;;;;;4972980;28;20202;-48
2023/04/30 06:29:50;;;;;;;4.28;3.30;;;20.60;56.40;;;;;;4972892;28;20209;-48
2023/04/30 06:32:22;;;;;;;3.85;3.22;;;20.60;56.40;;;;;;4989138;28;20204;-47
2023/04/30 06:34:53;;;;;;;3.33;3.03;;;20.60;56.40;;;;;;4995991;28;20210;-50
2023/04/30 06:37:24;;;;;;;3.55;3.25;;;20.50;56.30;;;;;;4972446;28;20202;-47
2023/04/30 06:39:54;;;;;;;3.83;3.40;;;20.50;56.30;;;;;;4972467;28;20222;-48
2023/04/30 06:42:25;;;;;;;4.95;3.38;;;20.50;56.30;;;;;;4972081;28;20202;-48
2023/04/30 06:44:55;;;;;;;3.97;3.17;;;20.50;56.30;;;;;;4972850;28;20225;-49
2023/04/30 06:47:28;;;;;;;3.38;3.10;;;20.50;56.30;;;;;;4989800;28;20197;-51
2023/04/30 06:49:59;;;;;;;4.00;3.53;;;20.50;56.30;;;;;;4992027;28;20217;-50
2023/04/30 06:52:29;;;;;;;3.90;3.00;;;20.50;56.30;;;;;;4991623;28;20208;-50
2023/04/30 06:55:00;;;;;;;4.15;3.08;;;20.50;56.30;;;;;;4986763;28;20194;-53
2023/04/30 06:57:31;;;;;;;3.92;3.35;;;20.50;56.30;;;;;;4971982;28;20194;-49
2023/04/30 07:00:02;;;;;;;3.92;3.45;;;20.50;56.30;;;;;;4972774;28;20226;-47
2023/04/30 07:02:35;;;;;;;5.18;3.42;;;20.50;56.40;;;;;;4972297;28;20688;-54
2023/04/30 07:05:06;;;;;;;4.90;3.70;;;20.50;56.40;;;;;;4971871;28;20228;-54
2023/04/30 07:07:37;;;;;;;4.35;3.28;;;20.50;56.40;;;;;;4972361;28;20198;-54
2023/04/30 07:10:08;;;;;;;3.95;3.25;;;20.50;56.40;;;;;;4971350;28;20225;-53
2023/04/30 07:12:38;;;;;;;4.85;3.28;;;20.50;56.40;;;;;;4971591;28;20658;-52
2023/04/30 07:15:10;;;;;;;5.03;3.67;;;20.50;56.40;;;;;;4987931;28;20256;-48
2023/04/30 07:17:42;;;;;;;6.03;3.65;;;20.50;56.40;;;;;;4972140;28;20210;-51
2023/04/30 07:20:15;;;;;;;3.50;3.05;;;20.40;56.30;;;;;;4971423;28;20210;-52
2023/04/30 07:22:45;;;;;;;3.75;3.17;;;20.40;56.30;;;;;;4972547;28;20658;-50
2023/04/30 07:25:16;;;;;;;3.78;3.20;;;20.40;56.30;;;;;;4985106;28;20586;-53
2023/04/30 07:27:47;;;;;;;4.43;3.30;;;20.50;56.30;;;;;;4971296;28;20198;-49
2023/04/30 07:30:17;;;;;;;3.40;3.10;;;20.40;56.30;;;;;;4972048;28;20214;-49
2023/04/30 07:32:50;;;;;;;4.47;3.50;;;20.40;56.30;;;;;;4972011;28;20213;-54
2023/04/30 07:35:21;;;;;;;4.93;3.67;;;20.40;56.30;;;;;;4985563;28;20650;-53
2023/04/30 07:37:51;;;;;;;3.83;3.22;;;20.40;56.20;;;;;;4971496;28;20202;-51
2023/04/30 07:40:22;;;;;;;3.83;3.38;;;20.40;56.30;;;;;;4971562;28;20210;-50
2023/04/30 07:42:53;;;;;;;3.42;3.13;;;20.40;56.20;;;;;;4971263;28;20666;-51
2023/04/30 07:48:26;;;;;;;4.15;3.28;;;20.40;56.30;;;;;;4971517;28;20222;-49
2023/04/30 07:50:57;;;;;;;4.43;3.63;;;20.40;56.20;;;;;;4971611;28;20194;-52
2023/04/30 07:53:28;;;;;;;4.28;3.25;;;20.40;56.20;;;;;;4976946;28;20205;-51
2023/04/30 07:55:59;;;;;;;5.00;3.88;;;20.40;56.30;;;;;;4981038;28;20197;-53
2023/04/30 07:58:29;;;;;;;4.00;3.60;;;20.30;56.20;;;;;;4986720;28;20225;-49
2023/04/30 08:01:00;;;;;;;4.00;3.63;;;20.30;56.20;;;;;;4991561;28;20582;-49
2023/04/30 08:03:32;;;;;;;3.90;3.50;;;20.30;56.20;;;;;;4991333;28;20255;-52
2023/04/30 08:06:03;;;;;;;4.90;3.53;;;20.30;56.30;;;;;;4991705;28;20292;-50
2023/04/30 08:08:34;;;;;;;4.30;3.33;;;20.30;56.20;;;;;;4991540;28;20225;-52
2023/04/30 08:11:04;;;;;;;3.78;3.47;;;20.30;56.20;;;;;;4991053;28;20198;-50
2023/04/30 08:13:35;;;;;;;5.88;3.40;;;20.30;56.20;;;;;;4991572;28;20658;-49
2023/04/30 08:16:06;;;;;;;5.22;3.97;;;20.30;56.30;;;;;;4988381;28;20241;-49
2023/04/30 08:18:42;;;;;;;4.80;3.63;;;20.30;56.30;;;;;;4971961;28;20630;-48
2023/04/30 08:21:13;;;;;;;4.85;3.55;;;20.30;56.40;;;;;;4971813;28;20202;-49
2023/04/30 08:23:44;;;;;;;3.97;3.58;;;20.30;56.30;;;;;;4980171;28;20210;-49
2023/04/30 08:26:14;;;;;;;4.10;3.40;;;20.30;56.30;;;;;;4991119;28;20229;-49
2023/04/30 08:28:45;;;;;;;3.95;3.45;;;20.30;56.30;;;;;;4991557;28;20222;-50
2023/04/30 08:31:16;;;;;;;5.05;4.10;;;20.30;56.30;;;;;;4991489;28;20201;-51
2023/04/30 08:33:48;;;;;;;4.40;3.88;;;20.30;56.30;;;;;;4991452;28;20268;-49
2023/04/30 08:36:19;;;;;;;3.97;3.55;;;20.30;56.40;;;;;;5000705;28;20189;-50
2023/04/30 08:38:50;;;;;;;6.63;4.22;;;20.30;56.30;;;;;;5010696;28;20217;-49
2023/04/30 08:41:22;;;;;;;4.47;3.70;;;20.30;56.40;;;;;;5010684;28;20255;-53
2023/04/30 08:43:55;;;;;;;4.35;3.78;;;20.30;56.40;;;;;;5010908;28;20201;-52
2023/04/30 08:46:27;;;;;;;5.57;4.13;;;20.20;56.40;;;;;;5013582;28;20786;-50
2023/04/30 08:49:00;;;;;;;5.97;4.13;;;20.20;56.40;;;;;;5013878;28;20212;-48
2023/04/30 08:51:34;;;;;;;5.47;3.88;;;20.20;56.40;;;;;;5014062;28;20204;-51
2023/04/30 08:54:04;;;;;;;5.32;3.80;;;20.20;56.30;;;;;;5003007;28;20197;-55
2023/04/30 08:56:35;;;;;;;4.03;3.42;;;20.20;56.30;;;;;;4991892;28;20201;-49
2023/04/30 08:59:06;;;;;;;4.72;3.83;;;20.20;56.30;;;;;;4995212;28;20232;-50
2023/04/30 09:01:37;;;;;;;4.57;4.00;;;20.20;56.30;;;;;;4994664;28;20193;-50
2023/04/30 09:04:10;;;;;;;3.85;3.47;;;20.20;56.30;;;;;;4994257;28;20205;-53
2023/04/30 09:06:41;;;;;;;4.65;3.42;;;20.20;56.30;;;;;;4994606;28;20701;-52
2023/04/30 09:09:13;;;;;;;4.03;3.63;;;20.20;56.30;;;;;;4994252;28;20564;-48
2023/04/30 09:11:44;;;;;;;5.70;3.65;;;20.20;56.40;;;;;;4994146;28;20264;-48
2023/04/30 09:14:15;;;;;;;4.75;3.83;;;20.20;56.40;;;;;;4994222;28;20201;-51
2023/04/30 09:16:49;;;;;;;3.97;3.63;;;20.20;56.30;;;;;;4994157;28;20206;-52
2023/04/30 09:19:31;;;;;;;4.07;3.65;;;20.20;56.40;;;;;;4996406;28;20652;-47
2023/04/30 09:22:19;;;;;;;4.70;3.55;;;20.20;56.40;;;;;;4994159;28;20586;-50
2023/04/30 09:24:51;;;;;;;4.03;3.60;;;20.20;56.40;;;;;;4991657;28;20609;-49
2023/04/30 09:27:22;;;;;;;4.75;3.72;;;20.10;56.30;;;;;;4992031;28;20229;-50
2023/04/30 09:29:53;;;;;;;5.72;4.00;;;20.10;56.30;;;;;;4993972;28;20244;-51
2023/04/30 09:32:24;;;;;;;4.30;3.65;;;20.10;56.30;;;;;;4993930;28;20649;-50
2023/04/30 09:34:57;;;;;;;3.97;3.58;;;20.10;56.30;;;;;;4993003;28;20653;-50
2023/04/30 09:37:39;;;;;;;4.22;3.75;;;20.10;56.40;;;;;;4993830;28;20205;-47
2023/04/30 09:40:11;;;;;;;4.00;3.65;;;20.10;56.40;;;;;;4994181;28;20720;-47
2023/04/30 09:42:43;;;;;;;4.25;3.85;;;20.10;56.40;;;;;;4993711;28;20244;-48
2023/04/30 09:45:14;;;;;;;5.20;3.67;;;20.10;56.40;;;;;;4992931;28;20200;-48
2023/04/30 09:47:45;;;;;;;4.75;3.80;;;20.10;56.60;;;;;;4993602;28;20197;-48
2023/04/30 09:50:20;;;;;;;4.18;3.70;;;20.10;56.60;;;;;;4995483;28;20217;-50
2023/04/30 09:52:54;;;;;;;5.40;3.83;;;20.10;56.60;;;;;;4975071;28;20202;-49
2023/04/30 09:55:25;;;;;;;5.80;4.07;;;20.10;56.60;;;;;;4987446;28;20208;-52
2023/04/30 09:57:56;;;;;;;9.93;5.43;;;20.10;56.60;;;;;;4990243;28;20201;-50
2023/04/30 10:00:26;;;;;;;8.70;5.50;;;20.10;57.10;;;;;;4992352;28;20224;-49
2023/04/30 10:02:57;;;;;;;6.68;4.35;;;20.10;57.20;;;;;;4978799;28;20202;-51
2023/04/30 10:05:31;;;;;;;6.85;3.97;;;20.10;57.20;;;;;;4973598;28;20198;-50
2023/04/30 10:08:02;;;;;;;5.55;4.00;;;20.10;57.10;;;;;;4973139;28;20641;-54
2023/04/30 10:10:33;;;;;;;5.72;4.10;;;20.10;57.00;;;;;;4974241;28;20186;-49
2023/04/30 10:13:09;;;;;;;4.78;4.13;;;20.10;56.90;;;;;;4973174;28;20201;-49
2023/04/30 10:15:43;;;;;;;5.35;4.30;;;20.10;56.90;;;;;;4991563;28;20208;-50
2023/04/30 10:18:20;;;;;;;4.18;3.78;;;20.00;56.90;;;;;;4993145;28;20193;-48
2023/04/30 10:20:55;;;;;;;4.50;3.97;;;20.00;56.90;;;;;;4986756;28;20282;-49
2023/04/30 10:23:26;;;;;;;5.75;4.25;;;20.10;56.90;;;;;;4975048;28;20194;-48
2023/04/30 10:25:58;;;;;;;4.90;3.85;;;20.00;56.90;;;;;;4972774;28;20334;-48
2023/04/30 10:28:28;;;;;;;5.47;4.03;;;20.00;56.90;;;;;;4973368;28;20280;-49
2023/04/30 10:31:00;;;;;;;5.10;4.20;;;20.00;56.90;;;;;;4973638;28;20201;-50
2023/04/30 10:33:39;;;;;;;6.03;4.32;;;20.00;56.90;;;;;;4972975;28;20205;-51
2023/04/30 10:36:16;;;;;;;7.03;4.85;;;20.00;56.90;;;;;;4972836;28;20566;-49
2023/04/30 10:38:47;;;;;;;5.63;3.80;;;20.00;56.90;;;;;;4972876;28;20220;-50
2023/04/30 10:41:21;;;;;;;5.15;3.55;;;20.00;56.90;;;;;;4972734;28;20289;-47
2023/04/30 10:43:51;;;;;;;6.00;4.60;;;20.00;56.90;;;;;;4983649;28;20592;-48
2023/04/30 10:46:29;;;;;;;5.00;4.20;;;19.90;56.80;;;;;;4995379;28;20226;-49
2023/04/30 10:48:59;;;;;;;5.80;4.18;;;19.90;56.80;;;;;;4972892;28;20264;-49
2023/04/30 10:51:47;;;;;;;5.35;3.67;;;19.90;56.80;;;;;;4976371;28;20198;-49
2023/04/30 10:54:24;;;;;;;5.30;4.40;;;19.90;56.90;;;;;;4985493;28;20227;-50
2023/04/30 10:56:57;;;;;;;4.50;3.55;;;19.90;56.80;;;;;;4980049;28;20603;-48
2023/04/30 10:59:29;;;;;;;4.60;3.45;;;20.00;56.90;;;;;;4972394;28;21063;-48
2023/04/30 11:02:02;;;;;;;4.47;3.75;;;19.90;56.80;;;;;;4972725;28;20205;-48
2023/04/30 11:04:32;;;;;;;4.78;4.18;;;19.90;56.80;;;;;;4976429;28;20225;-52
2023/04/30 11:07:12;;;;;;;4.45;4.05;;;19.90;56.80;;;;;;4991673;28;20221;-49
2023/04/30 11:09:44;;;;;;;5.03;3.55;;;19.90;56.80;;;;;;4991173;28;20785;-53
2023/04/30 11:12:17;;;;;;;4.50;3.88;;;19.90;56.80;;;;;;4991974;28;20194;-53
2023/04/30 11:14:48;;;;;;;4.80;3.72;;;19.90;56.80;;;;;;4994565;28;20668;-51
2023/04/30 11:17:26;;;;;;;4.30;3.67;;;19.90;56.80;;;;;;4976895;28;20202;-51
2023/04/30 11:20:00;;;;;;;5.13;3.90;;;19.90;56.80;;;;;;4971639;28;20708;-49
2023/04/30 11:22:35;;;;;;;4.72;3.70;;;19.80;56.80;;;;;;4971377;28;20280;-47
2023/04/30 11:25:11;;;;;;;5.13;4.30;;;19.80;56.80;;;;;;4990777;28;20201;-49
2023/04/30 11:27:44;;;;;;;5.25;3.95;;;19.90;56.80;;;;;;4974270;28;20701;-48
2023/04/30 11:30:16;;;;;;;4.63;3.40;;;19.80;56.80;;;;;;4972276;28;20309;-51
2023/04/30 11:32:48;;;;;;;3.92;3.53;;;19.80;56.80;;;;;;4971667;28;20198;-48
2023/04/30 11:35:21;;;;;;;5.38;3.65;;;19.80;56.80;;;;;;4971488;28;20194;-51
2023/04/30 11:37:58;;;;;;;5.38;3.90;;;19.80;57.40;;;;;;4971896;28;20213;-50
2023/04/30 11:40:30;;;;;;;4.38;3.42;;;19.80;56.80;;;;;;4971665;28;20210;-50
2023/04/30 11:43:01;;;;;;;5.07;3.70;;;19.80;56.80;;;;;;4973796;28;20232;-49
2023/04/30 11:45:31;;;;;;;3.75;3.30;;;19.80;56.80;;;;;;4982096;28;20612;-50
2023/04/30 11:48:02;;;;;;;3.50;3.20;;;19.80;56.80;;;;;;4982614;28;20239;-53
2023/04/30 11:50:36;;;;;;;3.90;3.53;;;19.80;56.80;;;;;;4988288;28;20208;-48
2023/04/30 11:53:11;;;;;;;3.90;3.60;;;19.80;56.80;;;;;;4991094;28;20204;-50
2023/04/30 11:55:43;;;;;;;4.38;3.85;;;19.80;56.80;;;;;;4990997;28;20612;-50
2023/04/30 11:58:13;;;;;;;4.60;3.72;;;19.80;56.80;;;;;;4991454;28;20216;-49
2023/04/30 12:00:44;;;;;;;3.83;3.42;;;19.80;56.80;;;;;;4991489;28;20202;-49
2023/04/30 12:03:17;;;;;;;4.18;3.55;;;19.80;56.80;;;;;;4991740;28;20201;-51
2023/04/30 12:05:49;;;;;;;4.78;3.80;;;19.80;56.80;;;;;;4991269;28;20229;-49
2023/04/30 12:08:22;;;;;;;4.95;3.78;;;19.80;56.70;;;;;;4991223;28;20542;-52
2023/04/30 12:10:53;;;;;;;4.50;3.47;;;19.70;56.70;;;;;;4981888;28;20228;-50
2023/04/30 12:13:23;;;;;;;6.28;4.18;;;19.70;56.70;;;;;;4980170;28;20566;-52
2023/04/30 12:16:03;;;;;;;4.30;3.90;;;19.70;56.70;;;;;;4979704;28;20198;-49
2023/04/30 12:18:36;;;;;;;4.10;3.60;;;19.70;56.70;;;;;;4981570;28;20214;-51
2023/04/30 12:21:06;;;;;;;6.03;3.90;;;19.70;56.80;;;;;;4983985;28;20186;-51
2023/04/30 12:23:39;;;;;;;3.72;3.28;;;19.70;56.70;;;;;;4985554;28;20207;-52
2023/04/30 12:26:10;;;;;;;4.15;3.33;;;19.70;56.80;;;;;;4984154;28;20201;-50
2023/04/30 12:28:40;;;;;;;4.15;3.75;;;19.70;56.80;;;;;;4983524;28;20667;-52
2023/04/30 12:31:11;;;;;;;3.75;3.35;;;19.70;56.70;;;;;;4983628;28;20555;-49
2023/04/30 12:33:42;;;;;;;3.85;3.47;;;19.70;56.70;;;;;;4983261;28;20194;-53
2023/04/30 12:36:14;;;;;;;4.82;3.70;;;19.70;56.70;;;;;;4982994;28;20952;-51
2023/04/30 12:38:48;;;;;;;4.80;4.30;;;19.70;56.70;;;;;;4983866;28;20272;-51
2023/04/30 12:41:19;;;;;;;4.25;3.40;;;19.70;56.70;;;;;;4984692;28;20649;-53
2023/04/30 12:43:52;;;;;;;4.60;3.85;;;19.70;56.70;;;;;;4984506;28;20194;-49
2023/04/30 12:46:29;;;;;;;5.50;4.07;;;19.60;56.70;;;;;;4983459;28;20453;-51
2023/04/30 12:49:00;;;;;;;5.00;4.43;;;19.60;56.70;;;;;;4982942;28;20220;-54
2023/04/30 12:51:31;;;;;;;4.18;3.78;;;19.60;56.60;;;;;;4983274;28;20278;-50
2023/04/30 12:54:04;;;;;;;4.10;3.40;;;19.60;56.70;;;;;;4985131;28;20200;-50
2023/04/30 12:56:34;;;;;;;3.67;3.28;;;19.60;56.70;;;;;;4984807;28;20226;-56
2023/04/30 12:59:16;;;;;;;4.32;3.67;;;19.60;57.30;;;;;;4979861;28;20221;-52
2023/04/30 13:01:49;;;;;;;4.15;3.65;;;19.60;56.70;;;;;;4974645;28;20230;-53
2023/04/30 13:04:20;;;;;;;4.70;3.53;;;19.50;56.70;;;;;;4976334;28;20198;-49
2023/04/30 13:06:51;;;;;;;3.97;3.58;;;19.60;56.70;;;;;;4994350;28;20221;-51
2023/04/30 13:09:23;;;;;;;4.55;3.92;;;19.60;56.70;;;;;;4994259;28;20237;-49
2023/04/30 13:11:54;;;;;;;4.05;3.63;;;19.60;56.70;;;;;;4996678;28;20263;-50
2023/04/30 13:14:24;;;;;;;4.00;3.60;;;19.50;56.70;;;;;;4994302;28;20205;-49
2023/04/30 13:16:55;;;;;;;4.22;3.83;;;19.50;56.70;;;;;;4994351;28;20295;-55